10Km

10 Km La Deûlémoniak du 04/12/21
Rg Dossard Nom Prénom Temps Cat Rg Cat Club Temps T1 Rg T1 Temps T2 Rg T2
1 25 CUVELIER Arnaud 00:42:22 M1M 1 CAMB 00:21:08 1 00:21:15 1
2 178 BERNARD Patrick 00:44:35 M0M 1 00:21:32 2 00:23:03 3
3 30 ROUTIER Fabien 00:44:39 M2M 1 00:22:03 3 00:22:36 2
4 166 DELCHAMBRE Camille 00:48:11 SEM 1 lomme natation triathlon 00:24:03 5 00:24:08 4
5 63 DOSSIN Hugo 00:48:58 M0M 2 ECACTG 00:23:50 4 00:25:08 8
6 94 ROMAGNY Benoit 00:49:04 M4M 1 00:24:18 7 00:24:47 6
7 79 SONNEVILLE Mickael 00:49:46 M2M 2 Lomme triathlon 00:24:33 8 00:25:14 9
8 132 ROTH Benjamin 00:50:03 M2M 3 00:24:50 9 00:25:14 10
9 147 BIET Nicolas 00:50:49 M2M 4 00:24:08 6 00:26:42 14
10 119 DESGARDIN Maxence 00:53:09 M1M 2 00:26:03 10 00:27:07 16
11 36 GIRARD Julien 00:54:08 M2M 5 00:26:37 11 00:27:31 18
12 184 DELCLOY Vincent 00:54:58 M2M 6 00:26:57 13 00:28:02 23
13 85 POUPARD Christopher 00:55:12 M2M 7 Wasquehal triathlon 00:30:33 28 00:24:39 5
14 240 DEWAVRIN Florent 00:55:19 M0M 3 00:27:42 14 00:27:38 19
15 86 CONAN Yannick 00:55:59 M3M 1 Wasquehal triathlon 00:30:36 29 00:25:23 11
16 116 REAL Pedro 00:56:23 M2M 8 Casa benfica tourcoing 00:28:45 17 00:27:39 20
17 174 DEREUDER David 00:56:27 M1M 3 Lomme triathlon 00:26:39 12 00:29:48 29
18 101 DAUTRICHE Louis 00:57:13 SEM 2 Team kineos bras casses 00:30:53 31 00:26:20 13
19 106 DELAIRE EP POCHOLLE Katy 00:57:22 M2F 1 TEAM GO FAST TRIATHLON ARMENTIERES 00:28:09 15 00:29:14 26
20 123 CROMBEZ Axel 00:57:27 CAM 1 Courir a comines 00:29:45 21 00:27:43 21
21 115 HAQUET Caroline 00:57:36 SEF 1 00:30:54 33 00:26:43 15
22 155 FERNANDES Sophie 00:57:45 M0F 1 00:29:44 20 00:28:02 22
23 17 AUGER Audrey 00:57:58 SEF 2 CG HAUBOURDIN 00:29:03 18 00:28:55 24
24 95 THOREL Cedric 00:58:17 SEM 3 00:30:54 34 00:27:24 17
25 90 COLPAERT Emmanuelle 00:59:09 M0F 2 00:30:05 23 00:29:04 25
26 81 DEBAILLEUL Carole 01:00:28 M2F 2 team ZOOT 00:30:31 26 00:29:57 30
27 80 VANCAUWENBERGHE Laurent 01:00:28 M4M 2 Team Zoot 00:30:12 24 00:30:16 32
28 39 LEFEVRE Steeve 01:00:51 M1M 4 00:30:52 30 00:30:00 31
29 29 DE MOURA Marie-Camille 01:00:59 M0F 3 00:31:26 37 00:29:33 27
30 91 DEVILLERS Alexis 01:01:01 M3M 2 Wasquehal triathlon 00:28:42 16 00:32:20 43
31 88 GRUSON Helene 01:01:02 M1F 1 00:30:32 27 00:30:30 33
32 113 HOUYVET Romuald 01:01:05 M3M 3 Halluin triathlon 00:29:56 22 00:31:09 37
33 204 RAVANT Aymeric 01:01:08 M2M 9 00:31:26 36 00:29:42 28
34 133 RAMBAUX Aristide 01:01:15 SEM 4 00:35:35 62 00:25:40 12
35 65 CATTEAU Bernard 01:01:19 M7M 1 Jogging des Fraises 00:30:26 25 00:30:53 35
36 209 DUJARDIN Damien 01:01:37 SEM 5 00:36:35 72 00:25:02 7
37 153 CLERC Antoine 01:02:44 M5M 1 00:29:42 19 00:33:03 45
38 64 SYX Helene 01:02:54 M0F 4 00:31:50 40 00:31:04 36
39 96 BOUVIER SAMBOURG Paul 01:03:05 M0M 4 00:30:54 32 00:32:12 42
40 5 DERUISSAUX Gaetan 01:03:32 SEM 6 00:31:49 39 00:31:44 38
41 131 BOURET Perrine 01:03:42 SEF 3 00:31:56 41 00:31:47 39
42 28 LELEU Clemence 01:04:30 M0F 5 00:31:12 35 00:33:19 48
43 218 FALEMPIN Benoit 01:04:44 M0M 5 Halluin Triathlon 00:34:08 51 00:30:37 34
44 232 GRESSEN Nathalie 01:05:19 M3F 1 00:32:31 42 00:32:48 44
45 104 DECAESTECKER Agathe 01:06:20 ESF 1 00:31:44 38 00:34:36 55
46 206 WEMEAUX Stephanie 01:06:25 M1F 2 00:33:19 50 00:33:07 46
47 205 WEMEAUX Franck 01:06:26 M1M 5 00:33:17 49 00:33:09 47
48 235 GAMBIER Maude 01:06:29 M2F 3 00:34:31 54 00:31:59 41
49 234 GAMBIER Nicolas 01:06:29 M1M 6 00:34:31 55 00:31:58 40
50 84 BONNET Danae 01:06:53 ESF 2 00:33:00 46 00:33:53 50
51 225 CUVELIER Michel 01:07:39 M0M 6 00:33:07 47 00:34:32 54
52 188 BRISBOIS Beatrice 01:07:49 M5F 1 00:32:52 45 00:34:57 59
53 100 SUCHER Fabienne 01:07:58 M2F 4 ASPL avec pass j'aime courir T 315702 00:33:11 48 00:34:47 56
54 195 VANDERPLANCKE Fanny 01:08:39 M0F 6 00:34:51 57 00:33:49 49
55 227 VALENDRE Fabrice 01:08:40 M0M 7 00:34:12 52 00:34:28 53
56 130 DELRUE Valentin 01:09:08 SEM 7 00:32:31 43 00:36:38 73
57 231 DENNETIERE Frederic 01:09:10 SEM 8 00:32:35 44 00:36:35 71
58 180 MESTACK Laurence 01:10:01 M3F 2 00:35:44 66 00:34:18 51
59 179 DUTHOIT Denis 01:10:01 M4M 3 00:35:43 65 00:34:19 52
60 22 TRAISNEL Vincent 01:10:06 SEM 9 00:34:31 56 00:35:35 63
61 135 LYOEN Marie 01:10:29 M0F 7 00:35:36 64 00:34:54 57
62 134 LYOEN Anne-Sophie 01:10:29 SEF 4 00:35:36 63 00:34:54 58
63 230 POTHELET Jean Francois 01:10:39 M7M 2 00:34:18 53 00:36:21 68
64 32 DEBURCK Charlotte 01:11:16 CAF 1 Courir a Comines 00:34:59 58 00:36:17 65
65 118 LOZINGUEZ Aurelie 01:11:30 M0F 8 00:35:00 60 00:36:31 69
66 168 DELAUTEL Angelique 01:11:32 M2F 5 Les pas presses 00:35:00 59 00:36:33 70
67 23 TRAISNEL Jeremy 01:12:04 SEM 10 00:36:00 69 00:36:04 64
68 183 LEFEBVRE Angelique 01:12:18 M0F 9 00:36:55 75 00:35:23 60
69 182 HENNION Perrine 01:12:18 M0F 10 00:36:55 76 00:35:23 61
70 191 HENNERON Severine 01:12:19 M2F 6 00:35:58 68 00:36:21 67
71 190 SEILLIER Laurence 01:12:20 M2F 7 00:36:02 70 00:36:18 66
72 142 CACHAT Coralie 01:12:23 M0F 11 00:36:58 77 00:35:26 62
73 200 BONIFACE Solange 01:12:44 M3F 3 00:35:46 67 00:36:59 75
74 45 DELEAU Helene 01:13:21 M0F 12 00:36:41 74 00:36:40 74
75 66 VAN NIEUWENHYSE Herve 01:14:20 M2M 10 Jogging des Fraises 00:35:03 61 00:39:18 79
76 76 DE SOUSA Julie 01:14:36 SEF 5 courir a comines 00:37:00 78 00:37:36 76
77 127 DESRUMAUX Helene 01:15:29 M4F 1 00:36:05 71 00:39:24 80
78 128 HERLEM Karine 01:15:29 M3F 4 00:38:52 80 00:36:37 72
79 208 SQUELBUT Sophie 01:15:32 SEF 6 00:36:37 73 00:38:55 78
80 24 DESTREBECQ Nathalie 01:16:31 M1F 3 00:38:13 79 00:38:19 77
81 219 PETIT Maud 01:27:14 M1F 4 Lesaffre 00:41:18 81 00:45:56 81